Time;durP1;ratioP1;P1;durP2;ratioP2;P2;SDS_P1;SDS_P2;PMS_P1;PMS_P2;Temp;Humidity;BMP_temperature;BMP_pressure;BME280_temperature;BME280_humidity;BME280_pressure;Samples;Min_cycle;Max_cycle;Signal;HPM_P1;HPM_P2
2022/05/09 00:01:50;;;;;;;0.63;0.20;;;;;;;;;;5056540;28;20104;-60
2022/05/09 00:04:15;;;;;;;0.30;0.30;;;;;;;;;;5066976;28;20096;-60
2022/05/09 00:06:40;;;;;;;0.00;0.00;;;;;;;;;;5065359;28;20043;-60
2022/05/09 00:09:05;;;;;;;1.20;1.00;;;;;;;;;;5065774;28;20453;-59
2022/05/09 00:11:31;;;;;;;0.00;0.00;;;;;;;;;;5064565;28;20382;-60
2022/05/09 00:13:56;;;;;;;0.03;0.03;;;;;;;;;;5065083;28;20035;-61
2022/05/09 00:16:22;;;;;;;0.00;0.00;;;;;;;;;;5069242;28;20468;-61
2022/05/09 00:18:47;;;;;;;0.00;0.00;;;;;;;;;;5069737;28;20114;-60
2022/05/09 00:21:13;;;;;;;0.00;0.00;;;;;;;;;;5068779;28;20012;-61
2022/05/09 00:23:38;;;;;;;0.00;0.00;;;;;;;;;;5069202;28;20385;-61
2022/05/09 00:26:03;;;;;;;0.00;0.00;;;;;;;;;;5069488;28;20427;-59
2022/05/09 00:28:29;;;;;;;0.75;0.75;;;;;;;;;;5068668;28;20024;-61
2022/05/09 00:30:54;;;;;;;0.00;0.00;;;;;;;;;;5069022;28;20108;-60
2022/05/09 00:33:19;;;;;;;0.75;0.75;;;;;;;;;;5069198;28;20635;-60
2022/05/09 00:35:45;;;;;;;0.00;0.00;;;;;;;;;;5068349;28;20044;-61
2022/05/09 00:38:10;;;;;;;0.10;0.10;;;;;;;;;;5067591;28;20035;-60
2022/05/09 00:40:37;;;;;;;0.13;0.13;;;;;;;;;;5068903;28;20032;-60
2022/05/09 00:43:02;;;;;;;0.45;0.45;;;;;;;;;;5068310;28;20061;-60
2022/05/09 00:45:28;;;;;;;0.00;0.00;;;;;;;;;;5068227;28;20056;-62
2022/05/09 00:47:53;;;;;;;0.00;0.00;;;;;;;;;;5069031;28;20024;-61
2022/05/09 00:50:29;;;;;;;0.10;0.10;;;;;;;;;;5068295;28;20024;-60
2022/05/09 00:52:55;;;;;;;2.20;0.70;;;;;;;;;;5055879;28;20115;-61
2022/05/09 00:55:20;;;;;;;0.70;0.63;;;;;;;;;;5068381;28;20104;-61
2022/05/09 00:57:46;;;;;;;4.13;0.83;;;;;;;;;;5050563;28;20392;-58
2022/05/09 01:00:14;;;;;;;0.00;0.00;;;;;;;;;;5067503;28;20297;-59
2022/05/09 01:02:41;;;;;;;0.00;0.00;;;;;;;;;;5067123;28;20115;-60
2022/05/09 01:05:07;;;;;;;0.00;0.00;;;;;;;;;;5066742;28;20102;-59
2022/05/09 01:07:32;;;;;;;0.80;0.80;;;;;;;;;;5057818;28;20469;-60
2022/05/09 01:09:58;;;;;;;0.00;0.00;;;;;;;;;;5068104;28;20078;-60
2022/05/09 01:12:29;;;;;;;0.20;0.20;;;;;;;;;;5068346;28;20641;-59
2022/05/09 01:14:55;;;;;;;0.05;0.05;;;;;;;;;;5065302;28;20021;-59
2022/05/09 01:17:22;;;;;;;0.00;0.00;;;;;;;;;;5064330;28;20483;-60
2022/05/09 01:19:47;;;;;;;0.00;0.00;;;;;;;;;;5060855;28;20048;-60
2022/05/09 01:22:17;;;;;;;0.00;0.00;;;;;;;;;;5066504;28;20052;-60
2022/05/09 01:24:43;;;;;;;0.08;0.08;;;;;;;;;;5059970;28;20031;-60
2022/05/09 01:27:08;;;;;;;0.95;0.93;;;;;;;;;;5065223;28;20021;-59
2022/05/09 01:29:52;;;;;;;2.85;0.52;;;;;;;;;;5065628;28;20024;-59
2022/05/09 01:32:21;;;;;;;0.35;0.35;;;;;;;;;;5063252;28;20079;-60
2022/05/09 01:34:47;;;;;;;4.78;0.30;;;;;;;;;;5055564;28;20079;-60
2022/05/09 01:37:13;;;;;;;0.00;0.00;;;;;;;;;;5067390;28;20047;-60
2022/05/09 01:39:39;;;;;;;0.20;0.20;;;;;;;;;;5068068;28;20016;-61
2022/05/09 01:42:06;;;;;;;0.10;0.10;;;;;;;;;;5068119;28;20017;-60
2022/05/09 01:44:31;;;;;;;0.00;0.00;;;;;;;;;;5067335;28;20032;-60
2022/05/09 01:49:40;;;;;;;0.00;0.00;;;;;;;;;;5068550;28;20659;-59
2022/05/09 01:52:07;;;;;;;0.10;0.10;;;;;;;;;;5066889;28;20095;-61
2022/05/09 01:54:32;;;;;;;0.00;0.00;;;;;;;;;;5067423;28;20047;-59
2022/05/09 01:56:57;;;;;;;1.85;0.10;;;;;;;;;;5067276;28;20041;-58
2022/05/09 01:59:23;;;;;;;0.28;0.28;;;;;;;;;;5067430;28;20047;-60
2022/05/09 02:01:56;;;;;;;0.00;0.00;;;;;;;;;;5068308;28;20095;-60
2022/05/09 02:04:22;;;;;;;0.73;0.73;;;;;;;;;;5066312;28;20052;-59
2022/05/09 02:06:47;;;;;;;1.45;0.47;;;;;;;;;;5067393;28;20059;-59
2022/05/09 02:09:13;;;;;;;0.32;0.32;;;;;;;;;;5067503;28;20060;-59
2022/05/09 02:11:38;;;;;;;0.00;0.00;;;;;;;;;;5067642;28;20027;-59
2022/05/09 02:14:03;;;;;;;0.00;0.00;;;;;;;;;;5068298;28;20449;-60
2022/05/09 02:16:29;;;;;;;0.00;0.00;;;;;;;;;;5067659;28;20070;-60
2022/05/09 02:18:54;;;;;;;0.00;0.00;;;;;;;;;;5067919;28;20016;-58
2022/05/09 02:21:19;;;;;;;0.98;0.55;;;;;;;;;;5067378;28;20017;-59
2022/05/09 02:23:44;;;;;;;0.00;0.00;;;;;;;;;;5067954;28;20027;-59
2022/05/09 02:26:10;;;;;;;0.00;0.00;;;;;;;;;;5067502;28;20028;-60
2022/05/09 02:28:35;;;;;;;0.10;0.10;;;;;;;;;;5067114;28;20032;-59
2022/05/09 02:31:00;;;;;;;0.00;0.00;;;;;;;;;;5067738;28;20041;-58
2022/05/09 02:33:26;;;;;;;0.00;0.00;;;;;;;;;;5065979;28;20063;-59
2022/05/09 02:35:51;;;;;;;0.00;0.00;;;;;;;;;;5070911;28;20110;-60
2022/05/09 02:38:17;;;;;;;0.05;0.05;;;;;;;;;;5070709;28;20035;-60
2022/05/09 02:40:42;;;;;;;0.00;0.00;;;;;;;;;;5071034;28;20021;-58
2022/05/09 02:43:07;;;;;;;0.00;0.00;;;;;;;;;;5070817;28;20021;-59
2022/05/09 02:45:33;;;;;;;2.03;0.43;;;;;;;;;;5069966;28;20029;-59
2022/05/09 02:47:58;;;;;;;0.15;0.15;;;;;;;;;;5071369;28;20028;-59
2022/05/09 02:50:24;;;;;;;0.00;0.00;;;;;;;;;;5070700;28;20385;-58
2022/05/09 02:52:50;;;;;;;0.00;0.00;;;;;;;;;;5071036;28;20110;-58
2022/05/09 02:55:18;;;;;;;0.15;0.15;;;;;;;;;;5069234;28;20139;-58
2022/05/09 02:57:43;;;;;;;0.00;0.00;;;;;;;;;;5071164;28;20017;-57
2022/05/09 03:00:11;;;;;;;0.00;0.00;;;;;;;;;;5070498;28;20098;-58
2022/05/09 03:02:36;;;;;;;0.00;0.00;;;;;;;;;;5067488;28;20023;-59
2022/05/09 03:05:01;;;;;;;0.15;0.15;;;;;;;;;;5070673;28;20099;-59
2022/05/09 03:07:26;;;;;;;0.52;0.52;;;;;;;;;;5070346;28;20036;-59
2022/05/09 03:09:52;;;;;;;0.10;0.10;;;;;;;;;;5070527;28;20028;-59
2022/05/09 03:12:19;;;;;;;0.28;0.28;;;;;;;;;;5070564;28;20024;-59
2022/05/09 03:14:45;;;;;;;0.45;0.45;;;;;;;;;;5070570;28;20447;-59
2022/05/09 03:17:10;;;;;;;0.40;0.40;;;;;;;;;;5070804;28;20024;-58
2022/05/09 03:19:35;;;;;;;0.00;0.00;;;;;;;;;;5070690;28;20020;-58
2022/05/09 03:22:01;;;;;;;0.00;0.00;;;;;;;;;;5070693;28;20020;-58
2022/05/09 03:24:26;;;;;;;0.65;0.57;;;;;;;;;;5051421;28;20020;-59
2022/05/09 03:26:52;;;;;;;0.08;0.08;;;;;;;;;;5070532;28;20067;-59
2022/05/09 03:29:18;;;;;;;0.17;0.17;;;;;;;;;;5064888;28;20025;-60
2022/05/09 03:31:46;;;;;;;0.00;0.00;;;;;;;;;;5050024;28;20040;-60
2022/05/09 03:34:11;;;;;;;0.00;0.00;;;;;;;;;;5069197;28;20040;-58
2022/05/09 03:36:36;;;;;;;2.97;1.17;;;;;;;;;;5064685;28;20637;-58
2022/05/09 03:39:02;;;;;;;0.10;0.10;;;;;;;;;;5069155;28;20017;-59
2022/05/09 03:41:27;;;;;;;0.08;0.08;;;;;;;;;;5066604;28;20029;-59
2022/05/09 03:43:52;;;;;;;1.35;0.98;;;;;;;;;;5067902;28;20373;-58
2022/05/09 03:46:17;;;;;;;0.00;0.00;;;;;;;;;;5060791;28;20031;-59
2022/05/09 03:48:43;;;;;;;0.20;0.20;;;;;;;;;;5068875;28;20043;-59
2022/05/09 03:51:08;;;;;;;0.30;0.30;;;;;;;;;;5067156;28;20532;-59
2022/05/09 03:53:33;;;;;;;0.00;0.00;;;;;;;;;;5068662;28;20028;-59
2022/05/09 03:55:59;;;;;;;0.00;0.00;;;;;;;;;;5063141;28;20047;-60
2022/05/09 03:58:24;;;;;;;0.60;0.60;;;;;;;;;;5057939;28;20409;-58
2022/05/09 04:00:50;;;;;;;0.00;0.00;;;;;;;;;;5061366;28;20028;-60
2022/05/09 04:03:15;;;;;;;0.00;0.00;;;;;;;;;;5065102;28;20020;-60
2022/05/09 04:05:41;;;;;;;1.80;1.45;;;;;;;;;;5065443;28;20048;-60
2022/05/09 04:08:08;;;;;;;0.13;0.13;;;;;;;;;;5064438;28;20029;-61
2022/05/09 04:10:34;;;;;;;0.25;0.25;;;;;;;;;;5065228;28;20156;-60
2022/05/09 04:13:00;;;;;;;0.70;0.70;;;;;;;;;;5068109;28;20027;-61
2022/05/09 04:18:10;;;;;;;0.00;0.00;;;;;;;;;;5064975;28;20108;-61
2022/05/09 04:20:36;;;;;;;6.50;3.40;;;;;;;;;;5067426;28;20127;-58
2022/05/09 04:23:01;;;;;;;0.00;0.00;;;;;;;;;;5066104;28;20032;-60
2022/05/09 04:25:28;;;;;;;0.00;0.00;;;;;;;;;;5063933;28;20543;-61
2022/05/09 04:27:55;;;;;;;0.00;0.00;;;;;;;;;;5065798;28;20028;-59
2022/05/09 04:30:20;;;;;;;1.00;0.30;;;;;;;;;;5062794;28;20109;-59
2022/05/09 04:32:46;;;;;;;0.05;0.05;;;;;;;;;;5064378;28;20020;-59
2022/05/09 04:35:17;;;;;;;0.00;0.00;;;;;;;;;;5067549;28;20152;-59
2022/05/09 04:37:45;;;;;;;0.00;0.00;;;;;;;;;;5069114;28;20031;-59
2022/05/09 04:40:11;;;;;;;0.00;0.00;;;;;;;;;;5069838;28;20032;-60
2022/05/09 04:42:36;;;;;;;0.00;0.00;;;;;;;;;;5069009;28;20125;-60
2022/05/09 04:45:02;;;;;;;0.00;0.00;;;;;;;;;;5067507;28;20484;-59
2022/05/09 04:47:27;;;;;;;0.60;0.60;;;;;;;;;;5068673;28;20384;-60
2022/05/09 04:49:52;;;;;;;0.10;0.10;;;;;;;;;;5068655;28;20465;-59
2022/05/09 04:52:17;;;;;;;0.00;0.00;;;;;;;;;;5068269;28;20074;-58
2022/05/09 04:54:43;;;;;;;0.00;0.00;;;;;;;;;;5068995;28;20017;-58
2022/05/09 04:57:08;;;;;;;0.00;0.00;;;;;;;;;;5067729;28;20468;-58
2022/05/09 04:59:33;;;;;;;0.57;0.57;;;;;;;;;;5067165;28;20025;-58
2022/05/09 05:01:58;;;;;;;0.00;0.00;;;;;;;;;;5068734;28;20572;-59
2022/05/09 05:04:23;;;;;;;1.00;1.00;;;;;;;;;;5068272;28;20051;-59
2022/05/09 05:06:49;;;;;;;0.00;0.00;;;;;;;;;;5068930;28;20454;-59
2022/05/09 05:09:14;;;;;;;1.40;1.30;;;;;;;;;;5068452;28;20021;-60
2022/05/09 05:11:40;;;;;;;0.10;0.10;;;;;;;;;;5066537;28;20120;-60
2022/05/09 05:14:05;;;;;;;0.10;0.10;;;;;;;;;;5067835;28;20027;-60
2022/05/09 05:19:14;;;;;;;0.00;0.00;;;;;;;;;;5062310;28;20108;-60
2022/05/09 05:21:41;;;;;;;0.00;0.00;;;;;;;;;;5067565;28;20111;-60
2022/05/09 05:24:09;;;;;;;0.25;0.25;;;;;;;;;;5067981;28;20066;-59
2022/05/09 05:26:35;;;;;;;0.10;0.10;;;;;;;;;;5066928;28;20028;-60
2022/05/09 05:29:00;;;;;;;8.98;1.30;;;;;;;;;;5067865;28;20026;-60
2022/05/09 05:31:25;;;;;;;0.00;0.00;;;;;;;;;;5065685;28;20107;-60
2022/05/09 05:33:50;;;;;;;0.00;0.00;;;;;;;;;;5066600;28;20036;-61
2022/05/09 05:36:16;;;;;;;0.10;0.10;;;;;;;;;;5068123;28;20458;-60
2022/05/09 05:38:43;;;;;;;0.00;0.00;;;;;;;;;;5067569;28;20037;-60
2022/05/09 05:41:08;;;;;;;0.00;0.00;;;;;;;;;;5067996;28;20020;-61
2022/05/09 05:43:33;;;;;;;3.47;2.17;;;;;;;;;;5066027;28;20339;-61
2022/05/09 05:45:58;;;;;;;0.00;0.00;;;;;;;;;;5069289;28;20048;-60
2022/05/09 05:48:26;;;;;;;0.15;0.15;;;;;;;;;;5067744;28;20069;-61
2022/05/09 05:50:54;;;;;;;0.10;0.10;;;;;;;;;;5067467;28;20124;-61
2022/05/09 05:53:19;;;;;;;0.90;0.80;;;;;;;;;;5067479;28;20094;-60
2022/05/09 05:55:45;;;;;;;0.30;0.30;;;;;;;;;;5067361;28;20020;-60
2022/05/09 05:58:10;;;;;;;0.57;0.57;;;;;;;;;;5067734;28;20118;-59
2022/05/09 06:00:36;;;;;;;0.20;0.20;;;;;;;;;;5066655;28;20028;-61
2022/05/09 06:03:01;;;;;;;1.30;1.30;;;;;;;;;;5046315;28;20086;-59
2022/05/09 06:05:26;;;;;;;0.13;0.13;;;;;;;;;;5070704;28;20051;-59
2022/05/09 06:07:52;;;;;;;0.00;0.00;;;;;;;;;;5052804;28;20036;-58
2022/05/09 06:10:18;;;;;;;0.00;0.00;;;;;;;;;;5074053;28;20032;-57
2022/05/09 06:12:43;;;;;;;0.22;0.22;;;;;;;;;;5073753;28;20021;-60
2022/05/09 06:17:53;;;;;;;0.00;0.00;;;;;;;;;;5071764;28;20032;-59
2022/05/09 06:20:18;;;;;;;0.00;0.00;;;;;;;;;;5073128;28;20020;-60
2022/05/09 06:22:44;;;;;;;0.00;0.00;;;;;;;;;;5072546;28;20083;-58
2022/05/09 06:25:11;;;;;;;1.17;0.85;;;;;;;;;;5072763;28;20037;-58
2022/05/09 06:27:36;;;;;;;0.52;0.52;;;;;;;;;;5071465;28;20634;-59
2022/05/09 06:30:03;;;;;;;0.00;0.00;;;;;;;;;;5073303;28;20035;-58
2022/05/09 06:32:28;;;;;;;0.00;0.00;;;;;;;;;;5071047;28;20023;-59
2022/05/09 06:34:54;;;;;;;0.00;0.00;;;;;;;;;;5070100;28;20074;-58
2022/05/09 06:37:19;;;;;;;0.00;0.00;;;;;;;;;;5063098;28;20390;-58
2022/05/09 06:39:44;;;;;;;0.00;0.00;;;;;;;;;;5068211;28;20262;-59
2022/05/09 06:42:10;;;;;;;0.00;0.00;;;;;;;;;;5070353;28;20473;-59
2022/05/09 06:44:35;;;;;;;0.00;0.00;;;;;;;;;;5070222;28;20024;-58
2022/05/09 06:47:01;;;;;;;0.00;0.00;;;;;;;;;;5070104;28;20059;-58
2022/05/09 06:49:27;;;;;;;0.00;0.00;;;;;;;;;;5070803;28;20409;-58
2022/05/09 06:51:52;;;;;;;0.17;0.17;;;;;;;;;;5069952;28;20029;-58
2022/05/09 06:54:20;;;;;;;0.00;0.00;;;;;;;;;;5068939;28;20021;-57
2022/05/09 06:56:45;;;;;;;0.00;0.00;;;;;;;;;;5069157;28;20024;-57
2022/05/09 06:59:11;;;;;;;0.00;0.00;;;;;;;;;;5073177;28;20029;-56
2022/05/09 07:01:37;;;;;;;0.00;0.00;;;;;;;;;;5075318;28;20048;-58
2022/05/09 07:04:03;;;;;;;0.00;0.00;;;;;;;;;;5074439;28;20373;-58
2022/05/09 07:06:28;;;;;;;0.10;0.10;;;;;;;;;;5074222;28;20082;-58
2022/05/09 07:08:53;;;;;;;0.05;0.05;;;;;;;;;;5069634;28;20033;-58
2022/05/09 07:11:18;;;;;;;0.00;0.00;;;;;;;;;;5074026;28;20374;-57
2022/05/09 07:13:44;;;;;;;0.10;0.10;;;;;;;;;;5074647;28;20024;-58
2022/05/09 07:16:11;;;;;;;0.00;0.00;;;;;;;;;;5074340;28;20028;-58
2022/05/09 07:18:38;;;;;;;1.55;1.45;;;;;;;;;;5073442;28;20028;-58
2022/05/09 07:21:03;;;;;;;1.27;0.98;;;;;;;;;;5070418;28;20383;-58
2022/05/09 07:23:28;;;;;;;0.00;0.00;;;;;;;;;;5074791;28;20016;-59
2022/05/09 07:25:55;;;;;;;0.00;0.00;;;;;;;;;;5074106;28;20107;-56
2022/05/09 07:28:21;;;;;;;0.00;0.00;;;;;;;;;;5073692;28;20266;-57
2022/05/09 07:30:46;;;;;;;0.00;0.00;;;;;;;;;;5074393;28;20028;-58
2022/05/09 07:33:13;;;;;;;1.17;0.98;;;;;;;;;;5075056;28;20086;-59
2022/05/09 07:35:38;;;;;;;0.00;0.00;;;;;;;;;;5071866;28;20044;-58
2022/05/09 07:38:04;;;;;;;0.00;0.00;;;;;;;;;;5074390;28;20029;-58
2022/05/09 07:40:29;;;;;;;0.00;0.00;;;;;;;;;;5073088;28;20266;-58
2022/05/09 07:42:54;;;;;;;0.00;0.00;;;;;;;;;;5072979;28;20024;-57
2022/05/09 07:45:20;;;;;;;0.00;0.00;;;;;;;;;;5071369;28;20029;-56
2022/05/09 07:47:46;;;;;;;0.00;0.00;;;;;;;;;;5072642;28;20085;-57
2022/05/09 07:50:13;;;;;;;0.00;0.00;;;;;;;;;;5071770;28;20033;-58
2022/05/09 07:52:40;;;;;;;0.00;0.00;;;;;;;;;;5072164;28;20063;-59
2022/05/09 07:55:06;;;;;;;0.00;0.00;;;;;;;;;;5072843;28;20025;-58
2022/05/09 07:57:31;;;;;;;0.45;0.38;;;;;;;;;;5071825;28;20024;-57
2022/05/09 07:59:58;;;;;;;0.00;0.00;;;;;;;;;;5072352;28;20028;-57
2022/05/09 08:02:23;;;;;;;0.00;0.00;;;;;;;;;;5072316;28;20111;-57
2022/05/09 08:04:48;;;;;;;0.00;0.00;;;;;;;;;;5071866;28;20111;-58
2022/05/09 08:07:14;;;;;;;0.00;0.00;;;;;;;;;;5072186;28;20028;-57
2022/05/09 08:09:39;;;;;;;0.10;0.10;;;;;;;;;;5071388;28;20029;-56
2022/05/09 08:12:05;;;;;;;0.00;0.00;;;;;;;;;;5072202;28;20021;-58
2022/05/09 08:14:30;;;;;;;0.05;0.05;;;;;;;;;;5072407;28;20055;-57
2022/05/09 08:16:56;;;;;;;0.00;0.00;;;;;;;;;;5071101;28;20029;-57
2022/05/09 08:19:22;;;;;;;0.00;0.00;;;;;;;;;;5071667;28;20051;-57
2022/05/09 08:21:50;;;;;;;0.00;0.00;;;;;;;;;;5071725;28;20055;-57
2022/05/09 08:24:16;;;;;;;0.00;0.00;;;;;;;;;;5070778;28;20461;-56
2022/05/09 08:26:41;;;;;;;0.00;0.00;;;;;;;;;;5070985;28;20025;-57
2022/05/09 08:29:07;;;;;;;0.00;0.00;;;;;;;;;;5070183;28;20021;-57
2022/05/09 08:31:32;;;;;;;0.00;0.00;;;;;;;;;;5070980;28;20275;-58
2022/05/09 08:33:59;;;;;;;0.20;0.05;;;;;;;;;;5053089;28;20019;-58
2022/05/09 08:39:08;;;;;;;0.17;0.17;;;;;;;;;;5063530;28;20520;-57
2022/05/09 08:41:39;;;;;;;0.00;0.00;;;;;;;;;;5071581;28;20052;-58
2022/05/09 08:44:05;;;;;;;0.00;0.00;;;;;;;;;;5068470;28;20107;-58
2022/05/09 08:46:48;;;;;;;0.00;0.00;;;;;;;;;;5071487;28;20442;-58
2022/05/09 08:49:22;;;;;;;0.00;0.00;;;;;;;;;;5069385;28;20024;-59
2022/05/09 08:52:02;;;;;;;0.13;0.13;;;;;;;;;;5071693;28;20021;-58
2022/05/09 08:54:28;;;;;;;0.00;0.00;;;;;;;;;;5068571;28;20469;-58
2022/05/09 08:56:56;;;;;;;0.00;0.00;;;;;;;;;;5068158;28;20027;-58
2022/05/09 08:59:26;;;;;;;0.00;0.00;;;;;;;;;;5070766;28;20028;-58
2022/05/09 09:01:53;;;;;;;0.00;0.00;;;;;;;;;;5067510;28;20037;-58
2022/05/09 09:04:23;;;;;;;0.00;0.00;;;;;;;;;;5070758;28;20023;-58
2022/05/09 09:06:51;;;;;;;0.00;0.00;;;;;;;;;;5067226;28;20017;-58
2022/05/09 09:09:37;;;;;;;0.10;0.10;;;;;;;;;;5067623;28;20548;-58
2022/05/09 09:12:18;;;;;;;0.00;0.00;;;;;;;;;;5071666;28;20414;-59
2022/05/09 09:15:02;;;;;;;0.10;0.10;;;;;;;;;;5072586;28;20024;-62
2022/05/09 09:17:27;;;;;;;0.00;0.00;;;;;;;;;;5073293;28;20485;-60
2022/05/09 09:20:11;;;;;;;0.10;0.10;;;;;;;;;;5067379;28;20021;-58
2022/05/09 09:22:54;;;;;;;0.08;0.08;;;;;;;;;;5068650;28;20316;-57
2022/05/09 09:25:40;;;;;;;0.00;0.00;;;;;;;;;;5065932;28;20089;-58
2022/05/09 09:28:09;;;;;;;0.00;0.00;;;;;;;;;;5056581;28;20051;-57
2022/05/09 09:30:35;;;;;;;0.28;0.28;;;;;;;;;;5063980;28;20533;-57
2022/05/09 09:33:01;;;;;;;0.00;0.00;;;;;;;;;;5057400;28;20103;-57
2022/05/09 09:35:42;;;;;;;0.00;0.00;;;;;;;;;;5043195;28;20041;-58
2022/05/09 09:38:16;;;;;;;0.20;0.20;;;;;;;;;;5031528;28;20386;-57
2022/05/09 09:40:41;;;;;;;0.57;0.35;;;;;;;;;;5045620;28;20109;-56
2022/05/09 09:43:06;;;;;;;0.52;0.47;;;;;;;;;;5044804;28;20112;-57
2022/05/09 09:45:35;;;;;;;0.00;0.00;;;;;;;;;;5050516;28;20028;-58
2022/05/09 09:48:09;;;;;;;0.52;0.35;;;;;;;;;;5049869;28;20033;-57
2022/05/09 09:50:35;;;;;;;0.00;0.00;;;;;;;;;;5046715;28;20034;-58
2022/05/09 09:53:01;;;;;;;0.13;0.13;;;;;;;;;;5048938;28;20017;-58
2022/05/09 09:55:29;;;;;;;0.00;0.00;;;;;;;;;;5054349;28;20547;-58
2022/05/09 09:57:55;;;;;;;0.00;0.00;;;;;;;;;;5044401;28;20366;-58
2022/05/09 10:00:23;;;;;;;4.07;2.20;;;;;;;;;;5046344;28;20036;-57
2022/05/09 10:02:50;;;;;;;0.23;0.23;;;;;;;;;;5045494;28;20021;-57
2022/05/09 10:05:20;;;;;;;0.00;0.00;;;;;;;;;;5049219;28;20039;-59
2022/05/09 10:07:46;;;;;;;0.00;0.00;;;;;;;;;;5045106;28;20545;-57
2022/05/09 10:10:13;;;;;;;0.00;0.00;;;;;;;;;;5047252;28;20083;-57
2022/05/09 10:12:40;;;;;;;0.10;0.10;;;;;;;;;;5048291;28;20017;-58
2022/05/09 10:15:26;;;;;;;0.00;0.00;;;;;;;;;;5047226;28;20026;-57
2022/05/09 10:17:51;;;;;;;0.00;0.00;;;;;;;;;;5047380;28;20470;-57
2022/05/09 10:20:33;;;;;;;4.57;3.50;;;;;;;;;;5048997;28;20083;-59
2022/05/09 10:25:58;;;;;;;1.30;1.30;;;;;;;;;;5049661;28;20032;-58
2022/05/09 10:28:24;;;;;;;0.00;0.00;;;;;;;;;;5048916;28;20684;-57
2022/05/09 10:30:52;;;;;;;0.00;0.00;;;;;;;;;;5049402;28;20025;-58
2022/05/09 10:33:31;;;;;;;0.08;0.08;;;;;;;;;;5051763;28;20051;-57
2022/05/09 10:35:57;;;;;;;0.00;0.00;;;;;;;;;;5068960;28;20434;-59
2022/05/09 10:38:31;;;;;;;2.03;1.38;;;;;;;;;;5070871;28;20459;-57
2022/05/09 10:41:03;;;;;;;0.10;0.10;;;;;;;;;;5071305;28;20028;-58
2022/05/09 10:43:38;;;;;;;5.57;0.55;;;;;;;;;;5070329;28;20028;-57
2022/05/09 10:46:07;;;;;;;0.00;0.00;;;;;;;;;;5070833;28;20111;-58
2022/05/09 10:48:35;;;;;;;;;;;;;;;;;;5050163;28;20120;-57
2022/05/09 10:51:09;;;;;;;0.00;0.00;;;;;;;;;;5070176;28;19927;-56
2022/05/09 10:54:00;;;;;;;0.00;0.00;;;;;;;;;;5070747;28;20012;-57
2022/05/09 10:56:31;;;;;;;0.80;0.38;;;;;;;;;;5039897;28;20048;-56
2022/05/09 10:59:00;;;;;;;1.17;1.08;;;;;;;;;;5071194;28;20016;-58
2022/05/09 11:01:31;;;;;;;0.00;0.00;;;;;;;;;;5070050;28;20024;-57
2022/05/09 11:03:56;;;;;;;1.08;1.08;;;;;;;;;;5070547;28;20036;-57
2022/05/09 11:06:41;;;;;;;0.60;0.60;;;;;;;;;;5071080;28;20090;-57
2022/05/09 11:09:15;;;;;;;0.47;0.47;;;;;;;;;;5070267;28;20033;-57
2022/05/09 11:11:54;;;;;;;0.00;0.00;;;;;;;;;;5069221;28;20143;-57
2022/05/09 11:14:22;;;;;;;0.00;0.00;;;;;;;;;;5070894;28;20035;-56
2022/05/09 11:16:48;;;;;;;0.00;0.00;;;;;;;;;;5071886;28;20024;-56
2022/05/09 11:19:32;;;;;;;0.00;0.00;;;;;;;;;;5067681;28;20108;-56
2022/05/09 11:22:08;;;;;;;5.05;0.20;;;;;;;;;;5071275;28;20751;-57
2022/05/09 11:24:56;;;;;;;0.75;0.75;;;;;;;;;;5070010;28;20378;-59
2022/05/09 11:27:24;;;;;;;0.00;0.00;;;;;;;;;;5070669;28;20491;-57
2022/05/09 11:30:08;;;;;;;0.00;0.00;;;;;;;;;;5070333;28;20286;-56
2022/05/09 11:32:38;;;;;;;1.60;1.50;;;;;;;;;;5070774;28;20472;-57
2022/05/09 11:35:15;;;;;;;0.13;0.13;;;;;;;;;;5069040;28;20041;-56
2022/05/09 11:37:43;;;;;;;0.28;0.25;;;;;;;;;;5068245;28;20024;-57
2022/05/09 11:40:27;;;;;;;0.00;0.00;;;;;;;;;;5065268;28;20139;-57
2022/05/09 11:43:29;;;;;;;0.00;0.00;;;;;;;;;;5065418;28;20111;-57
2022/05/09 11:46:18;;;;;;;0.08;0.08;;;;;;;;;;5067115;28;20052;-58
2022/05/09 11:49:01;;;;;;;0.05;0.05;;;;;;;;;;5070147;28;20056;-55
2022/05/09 11:51:45;;;;;;;0.00;0.00;;;;;;;;;;5065191;28;20036;-56
2022/05/09 11:54:14;;;;;;;0.00;0.00;;;;;;;;;;5068567;28;20063;-58
2022/05/09 11:56:43;;;;;;;0.08;0.08;;;;;;;;;;5068499;28;20393;-58
2022/05/09 11:59:12;;;;;;;0.40;0.40;;;;;;;;;;5069571;28;20016;-57
2022/05/09 12:01:56;;;;;;;0.00;0.00;;;;;;;;;;5068099;28;20109;-56
2022/05/09 12:04:27;;;;;;;0.00;0.00;;;;;;;;;;5067973;28;20827;-58
2022/05/09 12:06:53;;;;;;;0.32;0.32;;;;;;;;;;5065967;28;20107;-58
2022/05/09 12:09:38;;;;;;;0.00;0.00;;;;;;;;;;5047913;28;20099;-57
2022/05/09 12:12:03;;;;;;;0.00;0.00;;;;;;;;;;5069496;28;20384;-58
2022/05/09 12:14:43;;;;;;;0.00;0.00;;;;;;;;;;5069572;28;20035;-57
2022/05/09 12:17:17;;;;;;;0.00;0.00;;;;;;;;;;5069939;28;20039;-57
2022/05/09 12:19:42;;;;;;;0.15;0.15;;;;;;;;;;5068517;28;20032;-56
2022/05/09 12:22:18;;;;;;;0.00;0.00;;;;;;;;;;5070199;28;20020;-56
2022/05/09 12:24:44;;;;;;;0.25;0.25;;;;;;;;;;5069490;28;20024;-57
2022/05/09 12:27:29;;;;;;;0.00;0.00;;;;;;;;;;5069932;28;20020;-57
2022/05/09 12:29:58;;;;;;;0.00;0.00;;;;;;;;;;5068248;28;20021;-57
2022/05/09 12:32:23;;;;;;;0.00;0.00;;;;;;;;;;5069721;28;20020;-57
2022/05/09 12:34:48;;;;;;;0.40;0.40;;;;;;;;;;5068970;28;20497;-56
2022/05/09 12:37:15;;;;;;;0.25;0.20;;;;;;;;;;5069724;28;20202;-57
2022/05/09 12:39:49;;;;;;;0.00;0.00;;;;;;;;;;5068213;28;20024;-57
2022/05/09 12:42:27;;;;;;;0.00;0.00;;;;;;;;;;5069216;28;20025;-56
2022/05/09 12:44:53;;;;;;;0.00;0.00;;;;;;;;;;5068017;28;20040;-57
2022/05/09 12:47:26;;;;;;;0.00;0.00;;;;;;;;;;5070680;28;20028;-56
2022/05/09 12:49:57;;;;;;;0.43;0.43;;;;;;;;;;5069398;28;20047;-57
2022/05/09 12:52:26;;;;;;;0.00;0.00;;;;;;;;;;5069318;28;20103;-56
2022/05/09 12:57:38;;;;;;;0.00;0.00;;;;;;;;;;5068202;28;20035;-57
2022/05/09 13:00:17;;;;;;;0.00;0.00;;;;;;;;;;5068397;28;20078;-56
2022/05/09 13:02:43;;;;;;;0.00;0.00;;;;;;;;;;5067401;28;20103;-56
2022/05/09 13:05:09;;;;;;;1.88;0.22;;;;;;;;;;5068614;28;20849;-56
2022/05/09 13:07:52;;;;;;;0.00;0.00;;;;;;;;;;5067511;28;20513;-56
2022/05/09 13:10:17;;;;;;;0.00;0.00;;;;;;;;;;5067172;28;20107;-57
2022/05/09 13:12:43;;;;;;;0.00;0.00;;;;;;;;;;5068159;28;20108;-56
2022/05/09 13:15:18;;;;;;;0.00;0.00;;;;;;;;;;5066729;28;20263;-57
2022/05/09 13:18:04;;;;;;;0.00;0.00;;;;;;;;;;5068120;28;20433;-57
2022/05/09 13:20:31;;;;;;;0.43;0.40;;;;;;;;;;5066924;28;20396;-57
2022/05/09 13:23:01;;;;;;;0.10;0.10;;;;;;;;;;5067924;28;20021;-56
2022/05/09 13:26:00;;;;;;;0.00;0.00;;;;;;;;;;5067512;28;20027;-54
2022/05/09 13:28:29;;;;;;;0.00;0.00;;;;;;;;;;5046042;28;20036;-56
2022/05/09 13:30:55;;;;;;;0.00;0.00;;;;;;;;;;5067025;28;20112;-54
2022/05/09 13:33:30;;;;;;;0.00;0.00;;;;;;;;;;5068867;28;20024;-54
2022/05/09 13:35:59;;;;;;;0.00;0.00;;;;;;;;;;5066299;28;20045;-56
2022/05/09 13:38:26;;;;;;;0.37;0.37;;;;;;;;;;5067686;28;20033;-56
2022/05/09 13:40:53;;;;;;;0.00;0.00;;;;;;;;;;5066920;28;20270;-56
2022/05/09 13:43:26;;;;;;;0.00;0.00;;;;;;;;;;5067413;28;20047;-57
2022/05/09 13:46:06;;;;;;;0.05;0.03;;;;;;;;;;5066949;28;20029;-56
2022/05/09 13:48:32;;;;;;;0.00;0.00;;;;;;;;;;5067682;28;20024;-55
2022/05/09 13:50:57;;;;;;;0.00;0.00;;;;;;;;;;5065278;28;20025;-55
2022/05/09 13:53:27;;;;;;;0.13;0.13;;;;;;;;;;5067383;28;20013;-56
2022/05/09 13:55:55;;;;;;;0.08;0.08;;;;;;;;;;5066634;28;20072;-57
2022/05/09 13:58:22;;;;;;;0.00;0.00;;;;;;;;;;5066473;28;20027;-56
2022/05/09 14:00:49;;;;;;;0.00;0.00;;;;;;;;;;5065906;28;20436;-54
2022/05/09 14:03:20;;;;;;;0.00;0.00;;;;;;;;;;5067094;28;20028;-55
2022/05/09 14:05:46;;;;;;;0.00;0.00;;;;;;;;;;5065679;28;20024;-55
2022/05/09 14:08:13;;;;;;;0.00;0.00;;;;;;;;;;5049368;28;20047;-53
2022/05/09 14:10:47;;;;;;;0.00;0.00;;;;;;;;;;5066951;28;20377;-55
2022/05/09 14:13:27;;;;;;;0.00;0.00;;;;;;;;;;5066888;28;20039;-56
2022/05/09 14:15:55;;;;;;;0.00;0.00;;;;;;;;;;5048218;28;20024;-55
2022/05/09 14:18:20;;;;;;;0.00;0.00;;;;;;;;;;5067320;28;20027;-54
2022/05/09 14:20:46;;;;;;;0.00;0.00;;;;;;;;;;5048244;28;20028;-55
2022/05/09 14:23:17;;;;;;;0.00;0.00;;;;;;;;;;5068360;28;20095;-54
2022/05/09 14:31:21;;;;;;;0.00;0.00;;;;;;;;;;5071314;28;20035;-56
2022/05/09 14:33:47;;;;;;;0.43;0.43;;;;;;;;;;5070955;28;20028;-57
2022/05/09 14:36:30;;;;;;;2.92;0.60;;;;;;;;;;5070938;28;20043;-55
2022/05/09 14:38:57;;;;;;;0.10;0.10;;;;;;;;;;5069593;28;20409;-57
2022/05/09 14:41:37;;;;;;;0.70;0.70;;;;;;;;;;5071430;28;20108;-55
2022/05/09 14:44:15;;;;;;;3.78;1.40;;;;;;;;;;5071236;28;20071;-54
2022/05/09 14:47:00;;;;;;;0.00;0.00;;;;;;;;;;5071110;28;20025;-58
2022/05/09 14:49:26;;;;;;;0.00;0.00;;;;;;;;;;5069773;28;20028;-58
2022/05/09 14:51:57;;;;;;;0.60;0.60;;;;;;;;;;5071996;28;20406;-54
2022/05/09 14:54:22;;;;;;;0.00;0.00;;;;;;;;;;5071323;28;20020;-55
2022/05/09 14:59:34;;;;;;;0.00;0.00;;;;;;;;;;5066571;28;20485;-56
2022/05/09 15:02:10;;;;;;;0.28;0.28;;;;;;;;;;5052057;28;20031;-56
2022/05/09 15:04:36;;;;;;;0.00;0.00;;;;;;;;;;5069917;28;20381;-57
2022/05/09 15:07:01;;;;;;;0.00;0.00;;;;;;;;;;5070642;28;20107;-55
2022/05/09 15:09:27;;;;;;;0.20;0.20;;;;;;;;;;5069574;28;20920;-57
2022/05/09 15:11:53;;;;;;;1.15;1.15;;;;;;;;;;5069237;28;20116;-57
2022/05/09 15:14:19;;;;;;;2.65;0.43;;;;;;;;;;5070016;28;20036;-58
2022/05/09 15:16:45;;;;;;;0.63;0.63;;;;;;;;;;5070094;28;20070;-58
2022/05/09 15:19:18;;;;;;;0.00;0.00;;;;;;;;;;5070788;28;20457;-57